Anchorage, AK

1:21 AM AKDT on July 06, 2015 (GMT -0800)
Merrill | | Change Station
CLOSE
Current Station
Airport
Location: Anchorage Merrill,
Elevation: 135 ft
Nearby Weather Stations

Elev 135 ft 61.22 °N, 149.85 °W | Updated 28 minutes ago

Mostly Cloudy
Mostly Cloudy
65 °F
Feels Like 65 °F
N
4
Wind Variable Wind from East

Today
High -- | Low -- °F
--% Chance of Precip.
Yesterday
High -- | Low -- °F
Precip. -- in
4:34 AM 11:33 PM
Waning Gibbous, 77% visible
Pressure 30.11 in
Visibility 10.0 miles
Clouds Few 7000 ft
Mostly Cloudy 9000 ft
Mostly Cloudy 13000 ft
Mostly Cloudy 20000 ft
Dew Point 55 °F
Humidity 70%
Rainfall 0.00 in
Snow Depth Not available.
UV 0 out of 12
Pollen Not available.
Air Quality Not available.
Flu Activity Not available.
METAR PAMR 060853Z 09003KT 10SM FEW070 BKN090 BKN130 BKN200 18/13 A3011 RMK AO2 SLP196 60000 T01830128 402500144 58005

More Conditions Fewer Conditions

Pressure 30.11 in
Visibility 10.0 miles
Clouds Few 7000 ft
Mostly Cloudy 9000 ft
Mostly Cloudy 13000 ft
Mostly Cloudy 20000 ft
Dew Point 55 °F
Humidity 70%
Rainfall 0.00 in
Snow Depth Not available.
UV 0 out of 12
Pollen Not available.
Air Quality Not available.
Flu Activity Not available.
METAR PAMR 060853Z 09003KT 10SM FEW070 BKN090 BKN130 BKN200 18/13 A3011 RMK AO2 SLP196 60000 T01830128 402500144 58005

More Conditions Fewer Conditions

10-Day Weather Forecast

×

Almanac

Astronomy

Jul. 06, 2015 Rise Set
Actual Time
Civil Twilight
Nautical Twilight
Astronomical Twilight
Moon
Length of Visible Light
Length of Day
Tomorrow will be .
, % of the Moon is Illuminated

Today's Extremes

State Highs State Lows

Community

WunderPhotos

Upload Photos

1,835,520 photos uploaded!

WunderBlogs® & News

Nearby

Air Quality

  Air Quality AQ Index Pollutant
Not available.

Snow Depth

Station Depth Elevation

Earthquake Activity

City Distance Mag. Time & Date
Minimum magnitude displayed is 2.5.

Coastal Water Temperatures

Place Temperature

Stations

Nearby Weather Stations

Station Location Temp. Windchill Dew Point Humidity Wind Precip. Elev Updated Type